Terminal Aerodrome Forecast
Issued by NWS

Current Version | Previous Version | Graphics & Text | Print | Product List | Glossary On
Versions: 1 2 3 4 5 6 7 8 9 10 11 12 13 14 15 16 17 18 19
000
FTUS41 KILN 222300
TAFLUK
TAF
KLUK 222331Z 2300/2324 33012G19KT P6SM BKN250
     FM230100 33012KT P6SM FEW250
     FM230600 33004KT P6SM SKC
     FM231600 35007KT P6SM FEW040
     FM232300 VRB03KT P6SM SCT250=

USA.gov is the U.S. government's official web portal to all federal, state and local government web resources and services.